createdAt,value
2023-03-04T00:02:35.392Z,98860
2023-03-04T00:14:35.337Z,98850
2023-03-04T00:26:35.377Z,98840
2023-03-04T00:38:35.361Z,98830
2023-03-04T00:50:39.611Z,98830
2023-03-04T01:02:35.468Z,98820
2023-03-04T01:14:35.427Z,98820
2023-03-04T01:26:35.916Z,98810
2023-03-04T01:38:35.322Z,98790
2023-03-04T01:50:35.358Z,98780
2023-03-04T02:02:35.329Z,98760
2023-03-04T02:14:35.336Z,98760
2023-03-04T02:26:35.402Z,98750
2023-03-04T02:38:35.329Z,98750
2023-03-04T02:50:35.447Z,98750
2023-03-04T03:02:35.366Z,98740
2023-03-04T03:14:35.374Z,98730
2023-03-04T03:26:35.371Z,98730
2023-03-04T03:38:35.324Z,98720
2023-03-04T03:50:35.409Z,98730
2023-03-04T04:02:35.526Z,98720
2023-03-04T04:14:35.334Z,98720
2023-03-04T04:26:35.441Z,98720
2023-03-04T04:38:35.391Z,98700
2023-03-04T04:50:35.326Z,98700
2023-03-04T05:02:35.322Z,98690
2023-03-04T05:14:35.330Z,98700
2023-03-04T05:26:35.331Z,98700
2023-03-04T05:38:35.330Z,98700
2023-03-04T05:50:35.571Z,98700
2023-03-04T06:02:35.427Z,98710
2023-03-04T06:14:35.360Z,98720
2023-03-04T06:26:35.414Z,98730
2023-03-04T06:38:35.332Z,98750
2023-03-04T06:50:35.335Z,98750
2023-03-04T07:02:35.413Z,98750
2023-03-04T07:14:35.769Z,98760
2023-03-04T07:26:35.395Z,98770
2023-03-04T07:38:35.331Z,98780
2023-03-04T07:50:35.333Z,98790
2023-03-04T08:02:35.523Z,98790
2023-03-04T08:14:35.412Z,98800
2023-03-04T08:26:35.319Z,98810
2023-03-04T08:38:35.332Z,98810
2023-03-04T08:50:35.355Z,98820
2023-03-04T09:02:35.328Z,98820
2023-03-04T09:14:35.440Z,98810
2023-03-04T09:26:35.417Z,98810
2023-03-04T09:38:35.356Z,98820
2023-03-04T09:50:35.366Z,98820
2023-03-04T10:02:42.327Z,98810
2023-03-04T10:14:35.349Z,98810
2023-03-04T10:26:35.332Z,98800
2023-03-04T10:38:35.314Z,98800
2023-03-04T10:50:35.358Z,98790
2023-03-04T11:02:36.164Z,98780
2023-03-04T11:14:35.386Z,98780
2023-03-04T11:26:35.298Z,98790
2023-03-04T11:38:35.312Z,98780
2023-03-04T11:50:35.333Z,98780
2023-03-04T12:02:36.294Z,98760
2023-03-04T12:14:35.410Z,98750
2023-03-04T12:26:35.396Z,98740
2023-03-04T12:38:35.358Z,98730
2023-03-04T12:50:35.391Z,98730
2023-03-04T13:02:35.466Z,98700
2023-03-04T13:14:35.350Z,98690
2023-03-04T13:26:35.404Z,98700
2023-03-04T13:38:35.316Z,98680
2023-03-04T13:50:37.574Z,98680
2023-03-04T14:02:35.325Z,98670
2023-03-04T14:14:37.564Z,98680
2023-03-04T14:26:35.327Z,98670
2023-03-04T14:38:35.334Z,98640
2023-03-04T14:50:37.668Z,98610
2023-03-04T15:02:35.383Z,98600
2023-03-04T15:14:35.425Z,98590
2023-03-04T15:26:41.400Z,98590
2023-03-04T15:38:35.346Z,98590
2023-03-04T15:50:35.390Z,98580
2023-03-04T16:02:35.334Z,98580
2023-03-04T16:14:35.338Z,98590
2023-03-04T16:26:37.642Z,98580
2023-03-04T16:38:35.333Z,98570
2023-03-04T16:50:35.332Z,98570
2023-03-04T17:02:35.428Z,98570
2023-03-04T17:14:35.316Z,98570
2023-03-04T17:26:35.333Z,98550
2023-03-04T17:38:35.361Z,98550
2023-03-04T17:50:35.447Z,98550
2023-03-04T18:02:35.443Z,98560
2023-03-04T18:14:35.363Z,98560
2023-03-04T18:26:36.496Z,98550
2023-03-04T18:38:35.333Z,98550
2023-03-04T18:50:35.458Z,98540
2023-03-04T19:02:35.377Z,98540
2023-03-04T19:14:35.432Z,98550
2023-03-04T19:26:35.366Z,98550
2023-03-04T19:38:35.359Z,98560
2023-03-04T19:50:35.346Z,98560
2023-03-04T20:02:35.418Z,98550
2023-03-04T20:14:35.350Z,98550
2023-03-04T20:26:35.321Z,98540
2023-03-04T20:38:35.330Z,98550
2023-03-04T20:50:35.499Z,98550
2023-03-04T21:02:35.415Z,98550
2023-03-04T21:14:35.461Z,98550
2023-03-04T21:26:35.370Z,98540
2023-03-04T21:38:35.636Z,98530
2023-03-04T21:50:35.460Z,98530
2023-03-04T22:02:35.364Z,98530
2023-03-04T22:14:35.349Z,98530
2023-03-04T22:26:35.457Z,98520
2023-03-04T22:38:35.366Z,98510
2023-03-04T22:50:35.478Z,98520
2023-03-04T23:02:35.428Z,98510
2023-03-04T23:14:35.466Z,98500
2023-03-04T23:26:35.351Z,98490
2023-03-04T23:38:35.355Z,98490
2023-03-04T23:50:35.370Z,98480
